Time;durP1;ratioP1;P1;durP2;ratioP2;P2;SDS_P1;SDS_P2;PMS_P1;PMS_P2;Temp;Humidity;BMP_temperature;BMP_pressure;BME280_temperature;BME280_humidity;BME280_pressure;Samples;Min_cycle;Max_cycle;Signal;HPM_P1;HPM_P2
2022/10/11 00:01:16;;;;;;;;;;;;;;;16.96;66.67;95856.22;5036149;28;20745;-73
2022/10/11 00:03:41;;;;;;;;;;;;;;;16.79;66.92;95854.44;5052160;28;20013;-72
2022/10/11 00:06:07;;;;;;;;;;;;;;;17.04;66.50;95860.72;5051152;28;20071;-72
2022/10/11 00:08:33;;;;;;;;;;;;;;;16.78;66.87;95868.97;5033741;28;20024;-72
2022/10/11 00:10:59;;;;;;;;;;;;;;;16.16;67.92;95842.69;5051030;28;20018;-72
2022/10/11 00:13:24;;;;;;;;;;;;;;;16.24;68.82;95866.06;5040208;28;20393;-71
2022/10/11 00:15:49;;;;;;;;;;;;;;;16.49;67.99;95867.06;5031595;28;20017;-71
2022/10/11 00:18:14;;;;;;;;;;;;;;;16.21;68.76;95872.84;5050453;28;20016;-72
2022/10/11 00:20:40;;;;;;;;;;;;;;;15.99;70.20;95868.50;5049196;28;20024;-72
2022/10/11 00:23:05;;;;;;;;;;;;;;;16.10;69.74;95866.25;5050937;28;20024;-72
2022/10/11 00:25:30;;;;;;;;;;;;;;;16.14;69.51;95869.88;5047315;28;20092;-72
2022/10/11 00:27:55;;;;;;;;;;;;;;;16.22;69.34;95862.88;5051160;28;20024;-72
2022/10/11 00:30:20;;;;;;;;;;;;;;;16.01;69.52;95863.59;5048824;28;20021;-72
2022/10/11 00:32:46;;;;;;;;;;;;;;;16.56;68.56;95876.16;5051491;28;20032;-72
2022/10/11 00:35:11;;;;;;;;;;;;;;;16.76;68.31;95884.63;5049401;28;20029;-72
2022/10/11 00:37:37;;;;;;;;;;;;;;;16.68;67.91;95878.16;5049986;28;20018;-72
2022/10/11 00:40:04;;;;;;;;;;;;;;;16.42;68.68;95880.97;5031200;28;20021;-71
2022/10/11 00:42:30;;;;;;;;;;;;;;;16.27;69.39;95879.59;5033196;28;20019;-74
2022/10/11 00:45:15;;;;;;;;;;;;;;;16.84;68.07;95884.59;5032336;28;20013;-72
2022/10/11 00:47:41;;;;;;;;;;;;;;;17.00;67.36;95889.41;5018983;28;20063;-72
2022/10/11 00:50:08;;;;;;;;;;;;;;;16.84;67.40;95895.34;5042844;28;20013;-72
2022/10/11 00:52:36;;;;;;;;;;;;;;;17.35;66.84;95895.28;5051004;28;20013;-71
2022/10/11 00:55:04;;;;;;;;;;;;;;;16.98;67.33;95900.44;5048334;28;20485;-73
2022/10/11 00:57:33;;;;;;;;;;;;;;;17.05;67.38;95900.75;5051052;28;20053;-73
2022/10/11 00:59:58;;;;;;;;;;;;;;;17.12;67.07;95895.63;5049815;28;20464;-74
2022/10/11 01:02:25;;;;;;;;;;;;;;;17.58;66.26;95890.38;5049662;28;20021;-72
2022/10/11 01:04:51;;;;;;;;;;;;;;;17.76;65.48;95899.09;5048345;28;20470;-72
2022/10/11 01:07:17;;;;;;;;;;;;;;;17.78;65.31;95894.19;5046457;28;20013;-72
2022/10/11 01:09:42;;;;;;;;;;;;;;;17.91;65.11;95890.38;5050458;28;20014;-73
2022/10/11 01:12:13;;;;;;;;;;;;;;;17.74;65.26;95893.25;5049013;28;20397;-74
2022/10/11 01:14:49;;;;;;;;;;;;;;;17.97;64.76;95896.38;5049697;28;20013;-74
2022/10/11 01:17:30;;;;;;;;;;;;;;;18.10;64.34;95887.19;5049759;28;20028;-72
2022/10/11 01:20:14;;;;;;;;;;;;;;;18.24;64.16;95898.44;5049473;28;20022;-72
2022/10/11 01:22:52;;;;;;;;;;;;;;;18.31;63.79;95890.59;5050446;28;20052;-72
2022/10/11 01:25:17;;;;;;;;;;;;;;;18.24;63.52;95892.28;5048787;28;20108;-72
2022/10/11 01:28:01;;;;;;;;;;;;;;;18.26;63.47;95887.31;5032117;28;20159;-72
2022/10/11 01:30:31;;;;;;;;;;;;;;;18.36;63.39;95876.91;5048249;28;20402;-72
2022/10/11 01:33:01;;;;;;;;;;;;;;;18.45;63.24;95884.88;5032224;28;20014;-72
2022/10/11 01:35:39;;;;;;;;;;;;;;;18.48;63.10;95886.09;5031361;28;20018;-73
2022/10/11 01:38:11;;;;;;;;;;;;;;;18.25;62.82;95888.44;5050253;28;20009;-74
2022/10/11 01:40:40;;;;;;;;;;;;;;;18.34;63.18;95892.63;5049192;28;20670;-73
2022/10/11 01:43:05;;;;;;;;;;;;;;;18.43;63.14;95882.53;5049525;28;20824;-73
2022/10/11 01:45:32;;;;;;;;;;;;;;;18.53;63.04;95885.88;5046986;28;20021;-74
2022/10/11 01:48:10;;;;;;;;;;;;;;;18.55;62.79;95892.53;5049409;28;20113;-73
2022/10/11 01:50:41;;;;;;;;;;;;;;;18.58;62.84;95889.16;5049083;28;20017;-73
2022/10/11 01:53:25;;;;;;;;;;;;;;;18.60;62.51;95889.59;5050193;28;20369;-73
2022/10/11 01:55:56;;;;;;;;;;;;;;;18.59;62.80;95888.03;5047696;28;20063;-73
2022/10/11 01:58:21;;;;;;;;;;;;;;;18.61;62.81;95882.31;5049324;28;20017;-74
2022/10/11 02:00:58;;;;;;;;;;;;;;;18.59;62.47;95893.44;5047232;28;20497;-74
2022/10/11 02:03:39;;;;;;;;;;;;;;;18.43;62.63;95887.13;5050092;28;20009;-73
2022/10/11 02:06:08;;;;;;;;;;;;;;;18.51;62.88;95885.44;5031582;28;20018;-72
2022/10/11 02:08:33;;;;;;;;;;;;;;;18.56;62.92;95882.53;5048688;28;20187;-73
2022/10/11 02:11:08;;;;;;;;;;;;;;;18.58;62.74;95882.97;5031194;28;20689;-73
2022/10/11 02:13:38;;;;;;;;;;;;;;;18.55;62.88;95883.66;5049297;28;20017;-74
2022/10/11 02:16:06;;;;;;;;;;;;;;;18.56;62.69;95872.53;5029596;28;20025;-74
2022/10/11 02:18:33;;;;;;;;;;;;;;;18.53;62.47;95867.03;5031023;28;20017;-73
2022/10/11 02:21:01;;;;;;;;;;;;;;;18.52;62.56;95879.72;5047749;28;20517;-73
2022/10/11 02:23:28;;;;;;;;;;;;;;;18.48;62.54;95876.16;5031333;28;20029;-73
2022/10/11 02:28:28;;;;;;;;;;;;;;;18.48;62.48;95868.06;5065871;28;20425;-67
2022/10/11 02:30:55;;;;;;;;;;;;;;;18.48;62.59;95862.69;5068750;28;20021;-67
2022/10/11 02:33:23;;;;;;;;;;;;;;;18.48;62.52;95862.69;5068689;28;20020;-67
2022/10/11 02:35:52;;;;;;;;;;;;;;;18.60;61.97;95870.75;5068475;28;20070;-67
2022/10/11 02:38:23;;;;;;;;;;;;;;;18.62;62.01;95868.50;5068135;28;20017;-67
2022/10/11 02:40:54;;;;;;;;;;;;;;;18.42;62.56;95866.69;5068428;28;20013;-67
2022/10/11 02:43:24;;;;;;;;;;;;;;;18.39;62.44;95867.38;5068284;28;20103;-67
2022/10/11 02:45:52;;;;;;;;;;;;;;;18.41;62.34;95865.13;5057478;28;20017;-67
2022/10/11 02:48:17;;;;;;;;;;;;;;;18.42;62.47;95880.16;5066831;28;20400;-67
2022/10/11 02:50:42;;;;;;;;;;;;;;;18.43;62.53;95862.91;5072213;28;20013;-67
2022/10/11 02:53:08;;;;;;;;;;;;;;;18.40;62.64;95864.34;5071708;28;20514;-66
2022/10/11 02:55:33;;;;;;;;;;;;;;;18.36;62.57;95866.13;5072367;28;20020;-67
2022/10/11 02:57:59;;;;;;;;;;;;;;;18.35;62.64;95869.94;5071552;28;20067;-67
2022/10/11 03:00:24;;;;;;;;;;;;;;;18.34;62.47;95867.59;5071714;28;20052;-67
2022/10/11 03:02:49;;;;;;;;;;;;;;;18.33;62.60;95869.50;5071908;28;20013;-68
2022/10/11 03:05:14;;;;;;;;;;;;;;;18.33;62.47;95868.72;5072302;28;20566;-67
2022/10/11 03:07:39;;;;;;;;;;;;;;;18.33;62.62;95876.81;5071524;28;20006;-67
2022/10/11 03:10:05;;;;;;;;;;;;;;;18.30;62.66;95880.94;5071581;28;20019;-67
2022/10/11 03:12:31;;;;;;;;;;;;;;;18.26;62.80;95880.03;5071632;28;20458;-68
2022/10/11 03:14:56;;;;;;;;;;;;;;;18.27;62.91;95878.94;5070262;28;20017;-67
2022/10/11 03:17:21;;;;;;;;;;;;;;;18.27;62.79;95878.13;5071762;28;20383;-68
2022/10/11 03:19:47;;;;;;;;;;;;;;;18.15;62.85;95889.66;5072453;28;20394;-66
2022/10/11 03:22:12;;;;;;;;;;;;;;;18.11;62.98;95899.53;5069489;28;20013;-67
2022/10/11 03:24:37;;;;;;;;;;;;;;;18.09;63.14;95905.25;5071583;28;20013;-67
2022/10/11 03:27:03;;;;;;;;;;;;;;;18.13;63.35;95905.38;5071284;28;20155;-68
2022/10/11 03:29:28;;;;;;;;;;;;;;;18.16;63.31;95910.88;5070943;28;20036;-67
2022/10/11 03:31:53;;;;;;;;;;;;;;;18.21;63.13;95901.00;5071540;28;20373;-68
2022/10/11 03:34:19;;;;;;;;;;;;;;;18.25;62.95;95908.09;5070444;28;20009;-67
2022/10/11 03:36:45;;;;;;;;;;;;;;;18.30;62.89;95905.19;5072382;28;20056;-67
2022/10/11 03:39:10;;;;;;;;;;;;;;;18.33;62.65;95909.13;5052673;28;20045;-67
2022/10/11 03:41:35;;;;;;;;;;;;;;;18.36;62.71;95911.91;5072432;28;20009;-67
2022/10/11 03:44:00;;;;;;;;;;;;;;;18.37;62.31;95915.41;5070213;28;20017;-67
2022/10/11 03:46:26;;;;;;;;;;;;;;;18.38;62.52;95917.00;5071282;28;20024;-67
2022/10/11 03:48:51;;;;;;;;;;;;;;;18.38;62.55;95917.78;5070565;28;20021;-67
2022/10/11 03:51:16;;;;;;;;;;;;;;;18.40;62.46;95920.91;5070453;28;20074;-67
2022/10/11 03:53:41;;;;;;;;;;;;;;;18.43;62.37;95924.84;5071893;28;20009;-68
2022/10/11 03:56:07;;;;;;;;;;;;;;;18.39;62.35;95924.72;5069883;28;20074;-68
2022/10/11 03:58:32;;;;;;;;;;;;;;;18.39;62.22;95923.94;5069343;28;20020;-67
2022/10/11 04:00:58;;;;;;;;;;;;;;;18.37;62.26;95923.47;5055975;28;20689;-67
2022/10/11 04:03:23;;;;;;;;;;;;;;;18.36;62.15;95920.00;5071144;28;20012;-67
2022/10/11 04:05:49;;;;;;;;;;;;;;;18.35;62.04;95926.50;5070979;28;20021;-67
2022/10/11 04:08:14;;;;;;;;;;;;;;;18.33;62.30;95936.84;5070291;28;20012;-66
2022/10/11 04:10:39;;;;;;;;;;;;;;;18.37;62.28;95936.94;5052069;28;20491;-67
2022/10/11 04:13:04;;;;;;;;;;;;;;;18.35;61.94;95928.41;5070989;28;20010;-67
2022/10/11 04:15:30;;;;;;;;;;;;;;;18.28;62.07;95922.81;5069603;28;20012;-68
2022/10/11 04:17:55;;;;;;;;;;;;;;;18.30;62.26;95925.94;5070327;28;20032;-68
2022/10/11 04:20:20;;;;;;;;;;;;;;;18.31;62.15;95925.59;5056761;28;20474;-67
2022/10/11 04:22:46;;;;;;;;;;;;;;;18.33;61.95;95933.38;5069393;28;20017;-67
2022/10/11 04:25:11;;;;;;;;;;;;;;;18.31;62.06;95928.28;5070083;28;20020;-67
2022/10/11 04:27:36;;;;;;;;;;;;;;;18.32;62.11;95923.69;5070320;28;20100;-67
2022/10/11 04:30:02;;;;;;;;;;;;;;;18.33;61.93;95928.75;5068934;28;20021;-67
2022/10/11 04:32:27;;;;;;;;;;;;;;;18.35;62.02;95917.66;5069556;28;20797;-67
2022/10/11 04:34:52;;;;;;;;;;;;;;;18.35;62.06;95931.13;5070226;28;20017;-67
2022/10/11 04:37:18;;;;;;;;;;;;;;;17.73;61.81;95843.25;5070190;28;20017;-67
2022/10/11 04:39:43;;;;;;;;;;;;;;;18.41;61.84;95924.38;5070277;28;20013;-67
2022/10/11 04:42:09;;;;;;;;;;;;;;;18.39;61.86;95918.56;5069276;28;20408;-67
2022/10/11 04:44:34;;;;;;;;;;;;;;;18.43;61.74;95922.16;5070328;28;20021;-67
2022/10/11 04:47:00;;;;;;;;;;;;;;;18.41;61.87;95910.91;5069794;28;20020;-67
2022/10/11 04:49:25;;;;;;;;;;;;;;;18.35;62.10;95925.72;5069619;28;20009;-67
2022/10/11 04:51:50;;;;;;;;;;;;;;;18.28;62.60;95917.41;5068234;28;20013;-69
2022/10/11 04:54:15;;;;;;;;;;;;;;;18.16;62.75;95920.84;5066278;28;20107;-69
2022/10/11 04:56:41;;;;;;;;;;;;;;;18.12;63.19;95920.75;5069523;28;20104;-70
2022/10/11 04:59:06;;;;;;;;;;;;;;;18.14;63.05;95928.50;5069484;28;20013;-69
2022/10/11 05:01:31;;;;;;;;;;;;;;;18.15;62.76;95922.75;5069087;28;20107;-69
2022/10/11 05:03:57;;;;;;;;;;;;;;;18.07;63.20;95933.63;5068343;28;20014;-68
2022/10/11 05:06:22;;;;;;;;;;;;;;;18.10;62.92;95928.34;5066083;28;20105;-66
2022/10/11 05:08:48;;;;;;;;;;;;;;;18.11;62.99;95932.63;5031734;28;20125;-66
2022/10/11 05:11:14;;;;;;;;;;;;;;;18.11;62.65;95929.94;5043293;28;20005;-66
2022/10/11 05:13:40;;;;;;;;;;;;;;;18.11;62.70;95934.53;5069515;28;20062;-68
2022/10/11 05:16:05;;;;;;;;;;;;;;;18.11;62.68;95929.13;5070470;28;20021;-66
2022/10/11 05:18:31;;;;;;;;;;;;;;;18.12;62.70;95931.53;5069907;28;20012;-68
2022/10/11 05:20:59;;;;;;;;;;;;;;;18.13;62.53;95932.31;5059381;28;20013;-68
2022/10/11 05:23:24;;;;;;;;;;;;;;;18.13;62.45;95927.72;5063878;28;20056;-68
2022/10/11 05:25:49;;;;;;;;;;;;;;;18.13;62.33;95933.09;5070247;28;20048;-66
2022/10/11 05:28:14;;;;;;;;;;;;;;;18.13;62.25;95927.72;5069766;28;20400;-68
2022/10/11 05:30:40;;;;;;;;;;;;;;;18.13;62.27;95927.72;5069778;28;20006;-69
2022/10/11 05:33:05;;;;;;;;;;;;;;;18.13;62.49;95935.78;5052388;28;20056;-67
2022/10/11 05:35:30;;;;;;;;;;;;;;;18.12;62.42;95934.22;5068378;28;20024;-67
2022/10/11 05:37:56;;;;;;;;;;;;;;;18.14;61.99;95942.72;5069191;28;20017;-69
2022/10/11 05:40:21;;;;;;;;;;;;;;;18.06;62.04;95942.81;5067750;28;20009;-67
2022/10/11 05:42:46;;;;;;;;;;;;;;;17.96;62.27;95946.69;5069829;28;20013;-68
2022/10/11 05:45:11;;;;;;;;;;;;;;;17.94;62.73;95954.34;5068984;28;20013;-68
2022/10/11 05:47:36;;;;;;;;;;;;;;;17.96;62.90;95949.41;5066841;28;20009;-67
2022/10/11 05:50:02;;;;;;;;;;;;;;;18.06;62.85;95954.38;5068785;28;20374;-66
2022/10/11 05:52:27;;;;;;;;;;;;;;;18.16;62.87;95964.72;5069566;28;20109;-65
2022/10/11 05:54:52;;;;;;;;;;;;;;;18.25;62.57;95963.84;5065873;28;20500;-66
2022/10/11 05:57:17;;;;;;;;;;;;;;;18.32;62.37;95970.25;5068563;28;20017;-66
2022/10/11 05:59:42;;;;;;;;;;;;;;;18.43;62.22;95967.94;5068489;28;20389;-66
2022/10/11 06:02:11;;;;;;;;;;;;;;;18.44;61.86;95969.53;5067723;28;20446;-70
2022/10/11 06:04:37;;;;;;;;;;;;;;;18.51;61.72;95953.59;5067736;28;20063;-67
2022/10/11 06:07:02;;;;;;;;;;;;;;;18.58;61.47;95969.19;5068457;28;20049;-67
2022/10/11 06:09:28;;;;;;;;;;;;;;;18.64;61.60;95968.66;5051522;28;20013;-69
2022/10/11 06:11:53;;;;;;;;;;;;;;;18.68;61.08;95966.09;5063751;28;20013;-67
2022/10/11 06:14:18;;;;;;;;;;;;;;;18.63;60.94;95959.00;5066776;28;20060;-72
2022/10/11 06:16:44;;;;;;;;;;;;;;;18.64;61.45;95965.97;5065549;28;20027;-68
2022/10/11 06:19:09;;;;;;;;;;;;;;;18.73;61.36;95954.31;5058750;28;20063;-67
2022/10/11 06:21:34;;;;;;;;;;;;;;;18.68;61.38;95966.09;5068963;28;20374;-68
2022/10/11 06:24:00;;;;;;;;;;;;;;;18.80;61.00;95968.03;5072544;28;20055;-67
2022/10/11 06:26:26;;;;;;;;;;;;;;;18.85;60.88;95968.59;5071639;28;20056;-65
2022/10/11 06:28:51;;;;;;;;;;;;;;;18.85;60.79;95973.97;5073065;28;20052;-67
2022/10/11 06:31:16;;;;;;;;;;;;;;;18.79;60.72;95969.94;5071810;28;20088;-70
2022/10/11 06:33:41;;;;;;;;;;;;;;;18.86;60.76;95969.38;5072816;28;20048;-68
2022/10/11 06:36:11;;;;;;;;;;;;;;;18.55;61.22;95977.97;5073710;28;20009;-66
2022/10/11 06:38:36;;;;;;;;;;;;;;;18.75;60.86;95970.94;5072950;28;20021;-66
2022/10/11 06:41:08;;;;;;;;;;;;;;;18.59;60.78;95976.97;5073440;28;20108;-69
2022/10/11 06:43:33;;;;;;;;;;;;;;;18.59;61.24;95978.88;5054649;28;20512;-68
2022/10/11 06:45:58;;;;;;;;;;;;;;;18.78;61.35;95975.66;5055612;28;20041;-68
2022/10/11 06:48:23;;;;;;;;;;;;;;;18.95;61.04;95973.53;5072796;28;20021;-68
2022/10/11 06:50:49;;;;;;;;;;;;;;;18.83;60.97;95981.59;5054347;28;20021;-68
2022/10/11 06:53:14;;;;;;;;;;;;;;;18.60;61.37;95992.00;5072990;28;20527;-67
2022/10/11 06:55:39;;;;;;;;;;;;;;;18.47;62.26;95995.00;5073235;28;20016;-67
2022/10/11 06:58:04;;;;;;;;;;;;;;;18.59;61.68;95997.72;5073003;28;20010;-68
2022/10/11 07:00:30;;;;;;;;;;;;;;;17.96;63.49;96002.44;5071647;28;20013;-67
2022/10/11 07:02:55;;;;;;;;;;;;;;;18.48;62.61;96004.63;5054857;28;20016;-68
2022/10/11 07:05:20;;;;;;;;;;;;;;;18.91;61.88;96002.28;5072937;28;20393;-67
2022/10/11 07:07:45;;;;;;;;;;;;;;;19.25;61.00;95996.78;5054982;28;20094;-68
2022/10/11 07:10:10;;;;;;;;;;;;;;;19.27;59.72;96000.72;5053755;28;20120;-68
2022/10/11 07:12:36;;;;;;;;;;;;;;;19.46;59.36;96002.84;5054575;28;20013;-67
2022/10/11 07:15:01;;;;;;;;;;;;;;;19.71;59.24;96009.78;5072650;28;20031;-68
2022/10/11 07:17:26;;;;;;;;;;;;;;;19.39;58.78;96014.19;5054582;28;20021;-69
2022/10/11 07:19:51;;;;;;;;;;;;;;;18.77;60.58;96017.19;5070585;28;20096;-67
2022/10/11 07:22:16;;;;;;;;;;;;;;;19.45;59.54;96006.66;5054031;28;20051;-68
2022/10/11 07:24:42;;;;;;;;;;;;;;;19.85;58.80;96014.81;5072282;28;20016;-68
2022/10/11 07:27:07;;;;;;;;;;;;;;;20.17;58.10;96001.44;5054481;28;20033;-68
2022/10/11 07:29:32;;;;;;;;;;;;;;;20.48;57.53;96014.25;5072102;28;20006;-68
2022/10/11 07:31:57;;;;;;;;;;;;;;;20.77;56.90;96013.84;5069632;28;20016;-66
2022/10/11 07:34:22;;;;;;;;;;;;;;;20.94;55.44;96022.78;5068563;28;20017;-66
2022/10/11 07:36:48;;;;;;;;;;;;;;;21.03;55.13;96020.66;5067927;28;20020;-66
2022/10/11 07:39:13;;;;;;;;;;;;;;;21.16;54.70;96019.44;5050917;28;20045;-67
2022/10/11 07:41:38;;;;;;;;;;;;;;;21.37;54.27;96019.19;5051135;28;20104;-67
2022/10/11 07:44:04;;;;;;;;;;;;;;;21.52;53.57;96020.28;5065144;28;20009;-67
2022/10/11 07:46:30;;;;;;;;;;;;;;;21.54;53.40;96020.72;5065623;28;20096;-67
2022/10/11 07:48:55;;;;;;;;;;;;;;;21.19;52.93;96023.34;5061166;28;20159;-66
2022/10/11 07:51:21;;;;;;;;;;;;;;;21.20;53.63;96024.94;5052921;28;20044;-66
2022/10/11 07:53:47;;;;;;;;;;;;;;;20.90;53.76;96024.59;5068772;28;21901;-66
2022/10/11 07:56:13;;;;;;;;;;;;;;;20.95;53.51;96030.53;5052357;28;20481;-66
2022/10/11 07:58:39;;;;;;;;;;;;;;;21.05;53.67;96036.56;5071078;28;20497;-66
2022/10/11 08:01:04;;;;;;;;;;;;;;;21.04;53.88;96030.38;5052265;28;20007;-66
2022/10/11 08:03:30;;;;;;;;;;;;;;;20.63;54.12;96032.44;5034172;28;20010;-67
2022/10/11 08:05:59;;;;;;;;;;;;;;;19.74;56.33;96041.50;5059523;28;20021;-66
2022/10/11 08:08:24;;;;;;;;;;;;;;;19.64;57.08;96030.38;5068432;28;20100;-66
2022/10/11 08:10:50;;;;;;;;;;;;;;;20.10;56.22;96037.13;5065139;28;20584;-66
2022/10/11 08:13:15;;;;;;;;;;;;;;;20.02;56.36;96043.47;5069133;28;20013;-67
2022/10/11 08:15:41;;;;;;;;;;;;;;;20.38;55.26;96044.47;5071011;28;20013;-67
2022/10/11 08:18:06;;;;;;;;;;;;;;;20.10;55.92;96047.91;5071826;28;20100;-67
2022/10/11 08:20:32;;;;;;;;;;;;;;;19.02;58.42;96045.75;5071237;28;20009;-66
2022/10/11 08:22:57;;;;;;;;;;;;;;;18.77;59.55;96046.84;5071608;28;20037;-66
2022/10/11 08:25:22;;;;;;;;;;;;;;;19.38;58.48;96044.19;5070253;28;20013;-67
2022/10/11 08:30:23;;;;;;;;;;;;;;;19.30;58.11;96048.59;5049107;28;20021;-75
2022/10/11 08:32:48;;;;;;;;;;;;;;;19.76;57.06;96049.25;5050155;28;20020;-75
2022/10/11 08:35:14;;;;;;;;;;;;;;;19.86;57.45;96050.69;5049842;28;20010;-75
2022/10/11 08:37:39;;;;;;;;;;;;;;;20.71;55.23;96044.19;5050210;28;20060;-75
2022/10/11 08:40:05;;;;;;;;;;;;;;;21.40;54.08;96055.59;5049802;28;20025;-76
2022/10/11 08:42:56;;;;;;;;;;;;;;;21.41;53.25;96055.25;5050772;28;20013;-75
2022/10/11 08:45:41;;;;;;;;;;;;;;;21.80;52.57;96053.44;5049720;28;20072;-76
2022/10/11 08:48:12;;;;;;;;;;;;;;;22.28;51.87;96062.19;5049481;28;20052;-77
2022/10/11 08:50:38;;;;;;;;;;;;;;;21.05;52.75;96058.19;5049689;28;20517;-76
2022/10/11 08:53:10;;;;;;;;;;;;;;;20.51;55.20;96057.59;5049353;28;20111;-75
2022/10/11 08:55:42;;;;;;;;;;;;;;;21.32;52.94;96061.97;5049830;28;20045;-75
2022/10/11 08:58:09;;;;;;;;;;;;;;;20.48;54.29;96057.50;5051279;28;20009;-76
2022/10/11 09:00:35;;;;;;;;;;;;;;;21.12;53.11;96059.16;5049389;28;20032;-76
2022/10/11 09:03:20;;;;;;;;;;;;;;;21.69;51.76;96063.22;5050516;28;20014;-75
2022/10/11 09:06:04;;;;;;;;;;;;;;;21.96;51.61;96049.88;5049841;28;20048;-76
2022/10/11 09:08:36;;;;;;;;;;;;;;;22.16;51.02;96056.94;5049335;28;20020;-76
2022/10/11 09:11:20;;;;;;;;;;;;;;;22.99;49.84;96053.84;5049407;28;20005;-76
2022/10/11 09:13:58;;;;;;;;;;;;;;;23.01;48.49;96056.97;5045819;28;20386;-78
2022/10/11 09:16:27;;;;;;;;;;;;;;;20.58;54.08;96065.13;5044739;28;20021;-77
2022/10/11 09:19:01;;;;;;;;;;;;;;;21.50;53.20;96057.78;5030225;28;20006;-76
2022/10/11 09:21:38;;;;;;;;;;;;;;;20.53;54.45;96059.19;5029511;28;20036;-76
2022/10/11 09:24:10;;;;;;;;;;;;;;;20.45;54.93;96052.75;5048781;28;20104;-76
2022/10/11 09:26:38;;;;;;;;;;;;;;;20.45;54.97;96056.22;5033817;28;20014;-75
2022/10/11 09:29:15;;;;;;;;;;;;;;;20.22;54.84;96061.41;5028807;28;20018;-76
2022/10/11 09:31:44;;;;;;;;;;;;;;;20.36;55.22;96057.50;5030889;28;20006;-77
2022/10/11 09:34:12;;;;;;;;;;;;;;;20.17;55.52;96052.75;5049930;28;20458;-75
2022/10/11 09:36:50;;;;;;;;;;;;;;;19.79;55.80;96055.88;5049168;28;20097;-76
2022/10/11 09:39:32;;;;;;;;;;;;;;;19.82;56.04;96058.69;5049151;28;20016;-74
2022/10/11 09:42:07;;;;;;;;;;;;;;;18.98;59.48;96052.94;5048557;28;20010;-75
2022/10/11 09:44:37;;;;;;;;;;;;;;;20.02;56.74;96053.47;5029253;28;20063;-75
2022/10/11 09:47:03;;;;;;;;;;;;;;;19.53;57.70;96051.63;5029220;28;20010;-75
2022/10/11 09:49:39;;;;;;;;;;;;;;;19.85;56.64;96054.50;5028974;28;20065;-77
2022/10/11 09:52:06;;;;;;;;;;;;;;;20.66;54.99;96047.94;5031434;28;20006;-76
2022/10/11 09:54:38;;;;;;;;;;;;;;;20.98;53.50;96051.44;5049326;28;20768;-77
2022/10/11 09:57:03;;;;;;;;;;;;;;;20.94;53.76;96047.13;5050441;28;20014;-78
2022/10/11 09:59:30;;;;;;;;;;;;;;;21.52;51.74;96050.06;5049061;28;20032;-77
2022/10/11 10:02:14;;;;;;;;;;;;;;;22.18;50.93;96046.50;5050326;28;20005;-77
2022/10/11 10:04:59;;;;;;;;;;;;;;;22.58;49.40;96056.19;5029036;28;20017;-78
2022/10/11 10:07:25;;;;;;;;;;;;;;;22.90;48.42;96047.88;5028468;28;20020;-78
2022/10/11 10:09:51;;;;;;;;;;;;;;;23.17;48.20;96049.50;5028790;28;20010;-78
2022/10/11 10:12:25;;;;;;;;;;;;;;;23.40;47.73;96046.00;5031322;28;20017;-74
2022/10/11 10:15:02;;;;;;;;;;;;;;;23.41;46.89;96052.97;5048875;28;20013;-78
2022/10/11 10:17:27;;;;;;;;;;;;;;;23.68;47.24;96045.66;5048986;28;20105;-75
2022/10/11 10:19:53;;;;;;;;;;;;;;;23.83;46.01;96050.91;5049888;28;20009;-74
2022/10/11 10:22:25;;;;;;;;;;;;;;;24.06;45.64;96048.13;5047807;28;20481;-77
2022/10/11 10:24:51;;;;;;;;;;;;;;;24.32;45.07;96052.72;5048901;28;20060;-78
2022/10/11 10:27:19;;;;;;;;;;;;;;;24.09;44.90;96052.81;5049029;28;20018;-78
2022/10/11 10:30:08;;;;;;;;;;;;;;;23.85;45.07;96051.34;5048382;28;20024;-77
2022/10/11 10:32:39;;;;;;;;;;;;;;;23.89;44.99;96050.59;5049515;28;20057;-78
2022/10/11 10:35:23;;;;;;;;;;;;;;;23.46;45.50;96058.88;5048914;28;20010;-76
2022/10/11 10:37:55;;;;;;;;;;;;;;;23.38;46.18;96053.69;5050054;28;20067;-78
2022/10/11 10:40:28;;;;;;;;;;;;;;;22.95;46.83;96055.72;5048231;28;20016;-77
2022/10/11 10:42:54;;;;;;;;;;;;;;;23.19;47.07;96054.59;5048390;28;20014;-76
2022/10/11 10:45:23;;;;;;;;;;;;;;;23.23;46.46;96052.69;5050307;28;20012;-76
2022/10/11 10:48:00;;;;;;;;;;;;;;;22.74;47.51;96048.75;5050256;28;20056;-77
2022/10/11 10:50:30;;;;;;;;;;;;;;;22.95;47.04;96055.72;5047898;28;20010;-76
2022/10/11 10:53:01;;;;;;;;;;;;;;;22.98;46.81;96054.97;5028709;28;20010;-76
2022/10/11 10:55:43;;;;;;;;;;;;;;;23.39;45.91;96049.84;5029850;28;20072;-77
2022/10/11 10:58:22;;;;;;;;;;;;;;;23.87;45.20;96048.25;5028784;28;20097;-78
2022/10/11 11:00:49;;;;;;;;;;;;;;;24.50;44.48;96035.84;5046286;28;20021;-77
2022/10/11 11:03:20;;;;;;;;;;;;;;;23.92;44.65;96037.06;5048669;28;20044;-77
2022/10/11 11:05:59;;;;;;;;;;;;;;;23.44;44.60;96042.19;5049497;28;20112;-78
2022/10/11 11:08:24;;;;;;;;;;;;;;;23.86;44.87;96033.88;5052473;28;20016;-78
2022/10/11 11:11:02;;;;;;;;;;;;;;;23.33;45.77;96030.34;5051430;28;20013;-77
2022/10/11 11:13:46;;;;;;;;;;;;;;;21.79;48.51;96027.47;5051269;28;20521;-78
2022/10/11 11:16:17;;;;;;;;;;;;;;;22.67;47.06;96029.59;5050989;28;20116;-77
2022/10/11 11:18:52;;;;;;;;;;;;;;;21.39;49.30;96027.72;5051811;28;20014;-77
2022/10/11 11:21:28;;;;;;;;;;;;;;;19.58;53.76;96024.41;5033494;28;20009;-77
2022/10/11 11:24:16;;;;;;;;;;;;;;;21.18;50.81;96027.97;5032189;28;20104;-77
2022/10/11 11:26:41;;;;;;;;;;;;;;;21.64;49.06;96020.16;5033046;28;20095;-77
2022/10/11 11:29:06;;;;;;;;;;;;;;;22.20;48.19;96025.25;5032751;28;20155;-76
2022/10/11 11:31:50;;;;;;;;;;;;;;;21.75;49.52;96018.50;5033190;28;20013;-77
2022/10/11 11:34:16;;;;;;;;;;;;;;;21.78;49.14;96020.47;5031659;28;20056;-75
2022/10/11 11:36:44;;;;;;;;;;;;;;;21.52;49.39;96012.19;5031409;28;20116;-75
2022/10/11 11:39:16;;;;;;;;;;;;;;;21.13;51.39;96017.44;5046199;28;20016;-72
2022/10/11 11:41:49;;;;;;;;;;;;;;;21.49;51.12;96015.56;5035721;28;20374;-75
2022/10/11 11:44:18;;;;;;;;;;;;;;;22.57;48.65;96008.50;5033537;28;20010;-73
2022/10/11 11:46:46;;;;;;;;;;;;;;;21.15;51.37;96019.81;5034932;28;20045;-74
2022/10/11 11:49:18;;;;;;;;;;;;;;;21.45;51.33;96012.81;5037323;28;20010;-77
2022/10/11 11:51:44;;;;;;;;;;;;;;;20.31;55.08;96019.94;5036393;28;20059;-74
2022/10/11 11:54:19;;;;;;;;;;;;;;;20.57;54.78;96019.50;5043331;28;20010;-76
2022/10/11 11:56:58;;;;;;;;;;;;;;;20.47;54.29;96028.88;5048228;28;20013;-73
2022/10/11 11:59:46;;;;;;;;;;;;;;;20.37;55.08;96013.97;5045613;28;20010;-74
2022/10/11 12:02:11;;;;;;;;;;;;;;;21.09;52.37;96015.75;5035127;28;20006;-74
2022/10/11 12:04:40;;;;;;;;;;;;;;;21.87;50.38;96012.16;5035007;28;20021;-77
2022/10/11 12:07:08;;;;;;;;;;;;;;;21.30;51.21;96027.16;5041782;28;20002;-77
2022/10/11 12:09:34;;;;;;;;;;;;;;;22.22;48.18;96014.06;5038381;28;20040;-73
2022/10/11 12:12:02;;;;;;;;;;;;;;;21.80;49.13;96012.81;5032333;28;20371;-75
2022/10/11 12:14:30;;;;;;;;;;;;;;;22.47;48.07;96004.47;5031901;28;20017;-73
2022/10/11 12:17:10;;;;;;;;;;;;;;;23.19;46.91;96003.00;5031502;28;20018;-79
2022/10/11 12:19:36;;;;;;;;;;;;;;;24.13;45.12;96001.22;5032236;28;20109;-76
2022/10/11 12:22:17;;;;;;;;;;;;;;;22.87;45.88;96005.16;5039729;28;20017;-78
2022/10/11 12:24:52;;;;;;;;;;;;;;;23.35;45.20;95995.50;5032378;28;20100;-77
2022/10/11 12:27:38;;;;;;;;;;;;;;;23.91;44.47;95997.47;5032671;28;20009;-78
2022/10/11 12:30:04;;;;;;;;;;;;;;;23.63;43.35;95989.72;5042521;28;20018;-78
2022/10/11 12:32:35;;;;;;;;;;;;;;;22.73;45.85;96003.78;5052518;28;20010;-77
2022/10/11 12:35:21;;;;;;;;;;;;;;;22.77;45.06;95988.34;5051112;28;20068;-77
2022/10/11 12:37:49;;;;;;;;;;;;;;;22.47;46.59;95990.13;5048127;28;20037;-78
2022/10/11 12:40:34;;;;;;;;;;;;;;;22.48;46.29;95995.19;5050254;28;20017;-78
2022/10/11 12:43:10;;;;;;;;;;;;;;;22.71;44.98;95989.00;5052394;28;20009;-78
2022/10/11 12:45:36;;;;;;;;;;;;;;;23.60;43.92;95974.91;5052206;28;20319;-78
2022/10/11 12:48:16;;;;;;;;;;;;;;;23.88;43.22;95979.19;5052183;28;20017;-78
2022/10/11 12:50:47;;;;;;;;;;;;;;;23.71;42.81;95991.38;5051046;28;20729;-78
2022/10/11 12:53:15;;;;;;;;;;;;;;;23.92;43.19;95979.22;5052038;28;20013;-77
2022/10/11 12:55:48;;;;;;;;;;;;;;;23.19;43.74;95984.00;5051748;28;20012;-78
2022/10/11 12:58:21;;;;;;;;;;;;;;;22.16;46.61;95986.47;5049823;28;20010;-77
2022/10/11 13:00:50;;;;;;;;;;;;;;;21.78;47.45;95989.91;5035312;28;20014;-79